Time;durP1;ratioP1;P1;durP2;ratioP2;P2;SDS_P1;SDS_P2;PMS_P1;PMS_P2;Temp;Humidity;BMP_temperature;BMP_pressure;BME280_temperature;BME280_humidity;BME280_pressure;Samples;Min_cycle;Max_cycle;Signal;HPM_P1;HPM_P2
2022/05/17 00:01:29;;;;;;;;;8.00;7.67;;;;;;;;5084019;27;46314;-76
2022/05/17 00:03:54;;;;;;;;;11.00;9.67;;;;;;;;5091945;27;45373;-76
2022/05/17 00:06:20;;;;;;;;;10.00;9.00;;;;;;;;5089556;27;45221;-76
2022/05/17 00:08:45;;;;;;;;;6.67;6.67;;;;;;;;5087208;27;45250;-76
2022/05/17 00:11:10;;;;;;;;;6.00;6.00;;;;;;;;5093720;27;45250;-76
2022/05/17 00:13:35;;;;;;;;;10.00;8.33;;;;;;;;5093816;27;45226;-76
2022/05/17 00:16:01;;;;;;;;;9.00;8.00;;;;;;;;5100092;27;45479;-76
2022/05/17 00:18:26;;;;;;;;;9.00;8.67;;;;;;;;5091336;27;45363;-76
2022/05/17 00:20:51;;;;;;;;;7.00;7.00;;;;;;;;5091733;27;45390;-75
2022/05/17 00:23:17;;;;;;;;;7.00;7.00;;;;;;;;5089782;27;45344;-76
2022/05/17 00:25:44;;;;;;;;;8.00;8.00;;;;;;;;5093899;27;45266;-75
2022/05/17 00:28:09;;;;;;;;;9.33;8.00;;;;;;;;5091119;27;45238;-76
2022/05/17 00:30:34;;;;;;;;;7.00;6.67;;;;;;;;5089663;27;45934;-76
2022/05/17 00:33:00;;;;;;;;;5.67;5.67;;;;;;;;5092020;27;45446;-76
2022/05/17 00:35:25;;;;;;;;;7.33;7.00;;;;;;;;5090092;27;45352;-76
2022/05/17 00:37:50;;;;;;;;;6.00;6.00;;;;;;;;5090334;27;45314;-76
2022/05/17 00:40:16;;;;;;;;;12.00;11.00;;;;;;;;5088059;27;48083;-76
2022/05/17 00:42:41;;;;;;;;;7.00;7.00;;;;;;;;5091201;27;45416;-76
2022/05/17 00:45:10;;;;;;;;;8.00;8.00;;;;;;;;5087641;27;45301;-75
2022/05/17 00:47:39;;;;;;;;;4.67;4.67;;;;;;;;5093201;27;45298;-76
2022/05/17 00:50:08;;;;;;;;;6.67;6.67;;;;;;;;5085178;27;45602;-76
2022/05/17 00:52:36;;;;;;;;;6.67;6.67;;;;;;;;5092190;27;45366;-76
2022/05/17 00:55:06;;;;;;;;;5.67;5.00;;;;;;;;5092203;27;45296;-76
2022/05/17 00:57:34;;;;;;;;;7.33;7.33;;;;;;;;5092854;27;45537;-76
2022/05/17 01:00:02;;;;;;;;;6.33;6.33;;;;;;;;5090920;27;46515;-76
2022/05/17 01:02:28;;;;;;;;;7.67;6.00;;;;;;;;5093190;27;45363;-76
2022/05/17 01:04:54;;;;;;;;;5.33;5.33;;;;;;;;5084611;27;45184;-76
2022/05/17 01:07:21;;;;;;;;;5.33;5.33;;;;;;;;5091591;27;46133;-76
2022/05/17 01:09:46;;;;;;;;;6.00;6.00;;;;;;;;5091093;27;46963;-76
2022/05/17 01:12:12;;;;;;;;;8.33;5.67;;;;;;;;5090619;27;45913;-76
2022/05/17 01:17:22;;;;;;;;;7.33;7.33;;;;;;;;5093858;27;45299;-76
2022/05/17 01:19:47;;;;;;;;;8.67;7.00;;;;;;;;5092741;27;46110;-76
2022/05/17 01:22:13;;;;;;;;;7.00;7.00;;;;;;;;5090634;27;45348;-76
2022/05/17 01:24:38;;;;;;;;;7.00;7.00;;;;;;;;5086183;27;45471;-76
2022/05/17 01:27:09;;;;;;;;;6.00;6.00;;;;;;;;5090231;27;45305;-76
2022/05/17 01:29:43;;;;;;;;;7.00;6.00;;;;;;;;5090525;27;45494;-76
2022/05/17 01:32:09;;;;;;;;;5.33;5.00;;;;;;;;5091059;27;45434;-76
2022/05/17 01:34:35;;;;;;;;;7.67;7.00;;;;;;;;5086639;27;45354;-76
2022/05/17 01:37:00;;;;;;;;;6.67;5.67;;;;;;;;5090265;27;45293;-76
2022/05/17 01:39:25;;;;;;;;;6.00;6.00;;;;;;;;5083340;27;45530;-76
2022/05/17 01:41:50;;;;;;;;;9.00;7.67;;;;;;;;5090027;27;45342;-76
2022/05/17 01:44:16;;;;;;;;;7.00;7.00;;;;;;;;5090551;27;45472;-76
2022/05/17 01:46:41;;;;;;;;;9.00;8.67;;;;;;;;5090376;27;45458;-76
2022/05/17 01:49:06;;;;;;;;;6.00;6.00;;;;;;;;5085456;27;45312;-76
2022/05/17 01:51:31;;;;;;;;;6.00;6.00;;;;;;;;5090731;27;45287;-76
2022/05/17 01:53:56;;;;;;;;;7.00;6.00;;;;;;;;5092500;27;45909;-76
2022/05/17 01:56:22;;;;;;;;;5.33;5.00;;;;;;;;5090695;27;47081;-76
2022/05/17 01:58:47;;;;;;;;;8.33;6.33;;;;;;;;5090014;27;45496;-76
2022/05/17 02:01:12;;;;;;;;;6.00;6.00;;;;;;;;5090097;27;45413;-76
2022/05/17 02:03:38;;;;;;;;;7.00;7.00;;;;;;;;5085783;27;45350;-76
2022/05/17 02:06:04;;;;;;;;;5.33;5.00;;;;;;;;5089194;27;46601;-76
2022/05/17 02:08:29;;;;;;;;;6.00;6.00;;;;;;;;5082423;27;45499;-76
2022/05/17 02:10:55;;;;;;;;;7.00;6.00;;;;;;;;5092126;27;45738;-76
2022/05/17 02:13:20;;;;;;;;;7.67;7.33;;;;;;;;5089950;27;45337;-76
2022/05/17 02:15:45;;;;;;;;;5.00;5.00;;;;;;;;5097575;27;46010;-76
2022/05/17 02:18:10;;;;;;;;;8.00;6.67;;;;;;;;5088495;27;47240;-76
2022/05/17 02:20:36;;;;;;;;;6.00;6.00;;;;;;;;5089909;27;45447;-76
2022/05/17 02:23:01;;;;;;;;;8.00;7.00;;;;;;;;5085977;27;45343;-76
2022/05/17 02:25:26;;;;;;;;;6.33;6.33;;;;;;;;5088815;27;45152;-76
2022/05/17 02:27:52;;;;;;;;;6.00;6.00;;;;;;;;5089581;27;45423;-76
2022/05/17 02:30:17;;;;;;;;;5.67;5.67;;;;;;;;5087278;27;45933;-76
2022/05/17 02:32:43;;;;;;;;;5.33;4.33;;;;;;;;5089998;27;45252;-76
2022/05/17 02:35:09;;;;;;;;;8.67;8.67;;;;;;;;5081808;27;46425;-76
2022/05/17 02:37:34;;;;;;;;;5.00;5.00;;;;;;;;5088968;27;45330;-76
2022/05/17 02:39:59;;;;;;;;;6.00;5.67;;;;;;;;5085003;27;45380;-76
2022/05/17 02:42:24;;;;;;;;;7.33;5.33;;;;;;;;5089707;27;45424;-76
2022/05/17 02:44:50;;;;;;;;;8.00;7.00;;;;;;;;5090437;27;45759;-76
2022/05/17 02:47:15;;;;;;;;;8.67;7.33;;;;;;;;5091455;27;45390;-76
2022/05/17 02:49:43;;;;;;;;;9.67;9.33;;;;;;;;5096579;27;45458;-76
2022/05/17 02:52:08;;;;;;;;;9.33;8.67;;;;;;;;5089012;27;45318;-76
2022/05/17 02:54:34;;;;;;;;;11.00;11.00;;;;;;;;5082489;27;45263;-76
2022/05/17 02:56:59;;;;;;;;;5.67;4.67;;;;;;;;5091317;27;45561;-76
2022/05/17 02:59:24;;;;;;;;;10.00;10.00;;;;;;;;5090432;27;45538;-76
2022/05/17 03:01:49;;;;;;;;;8.33;8.33;;;;;;;;5088813;27;45298;-75
2022/05/17 03:04:15;;;;;;;;;8.67;8.67;;;;;;;;5091219;27;45425;-76
2022/05/17 03:06:40;;;;;;;;;8.00;8.00;;;;;;;;5087796;27;48242;-76
2022/05/17 03:09:06;;;;;;;;;8.33;8.33;;;;;;;;5082415;27;46349;-76
2022/05/17 03:11:31;;;;;;;;;8.67;8.33;;;;;;;;5088229;27;45377;-76
2022/05/17 03:13:56;;;;;;;;;7.00;6.00;;;;;;;;5090999;27;45469;-76
2022/05/17 03:16:27;;;;;;;;;7.00;7.00;;;;;;;;5098497;27;48552;-76
2022/05/17 03:18:52;;;;;;;;;8.00;8.00;;;;;;;;5080027;28;45368;-76
2022/05/17 03:21:17;;;;;;;;;7.00;7.00;;;;;;;;5079682;28;45267;-76
2022/05/17 03:23:42;;;;;;;;;7.00;5.67;;;;;;;;5078258;28;45503;-76
2022/05/17 03:26:08;;;;;;;;;9.00;8.00;;;;;;;;5079789;28;46458;-76
2022/05/17 03:28:33;;;;;;;;;7.67;7.67;;;;;;;;5079866;28;45401;-76
2022/05/17 03:30:58;;;;;;;;;5.00;5.00;;;;;;;;5095887;27;45337;-77
2022/05/17 03:33:23;;;;;;;;;6.67;6.67;;;;;;;;5079566;28;45296;-76
2022/05/17 03:35:48;;;;;;;;;7.33;7.33;;;;;;;;5081448;28;48269;-76
2022/05/17 03:38:14;;;;;;;;;8.00;7.00;;;;;;;;5081860;28;45370;-76
2022/05/17 03:40:39;;;;;;;;;6.33;5.33;;;;;;;;5082305;28;45483;-76
2022/05/17 03:43:04;;;;;;;;;6.67;6.67;;;;;;;;5083072;28;45231;-76
2022/05/17 03:45:29;;;;;;;;;7.00;6.33;;;;;;;;5081954;28;47502;-77
2022/05/17 03:47:55;;;;;;;;;6.00;6.00;;;;;;;;5081983;28;45809;-76
2022/05/17 03:50:20;;;;;;;;;10.00;8.67;;;;;;;;5082193;28;45239;-76
2022/05/17 03:52:45;;;;;;;;;9.00;7.00;;;;;;;;5081596;28;47466;-76
2022/05/17 03:55:11;;;;;;;;;6.00;6.00;;;;;;;;5081989;28;47484;-76
2022/05/17 03:57:36;;;;;;;;;6.00;6.00;;;;;;;;5083031;27;45258;-76
2022/05/17 04:00:06;;;;;;;;;7.33;7.00;;;;;;;;5083334;28;45151;-76
2022/05/17 04:02:31;;;;;;;;;6.00;6.00;;;;;;;;5081649;28;47220;-76
2022/05/17 04:04:56;;;;;;;;;8.00;7.00;;;;;;;;5082992;28;45373;-76
2022/05/17 04:07:22;;;;;;;;;6.33;6.33;;;;;;;;5082951;28;45396;-76
2022/05/17 04:09:47;;;;;;;;;6.33;6.00;;;;;;;;5083104;27;45539;-76
2022/05/17 04:12:13;;;;;;;;;8.00;7.00;;;;;;;;5082786;28;45378;-76
2022/05/17 04:14:38;;;;;;;;;7.00;6.33;;;;;;;;5084469;27;45455;-76
2022/05/17 04:17:04;;;;;;;;;9.00;8.00;;;;;;;;5122558;27;45343;-76
2022/05/17 04:19:29;;;;;;;;;8.67;7.67;;;;;;;;5124326;27;45289;-75
2022/05/17 04:21:55;;;;;;;;;6.00;6.00;;;;;;;;5123890;27;45274;-76
2022/05/17 04:24:20;;;;;;;;;9.67;8.33;;;;;;;;5123804;27;45340;-75
2022/05/17 04:26:45;;;;;;;;;8.67;7.00;;;;;;;;5111560;27;45821;-75
2022/05/17 04:29:10;;;;;;;;;7.00;7.00;;;;;;;;5093172;27;45325;-75
2022/05/17 04:31:36;;;;;;;;;7.67;7.67;;;;;;;;5089249;27;45177;-75
2022/05/17 04:34:02;;;;;;;;;6.33;6.33;;;;;;;;5082541;27;45210;-75
2022/05/17 04:36:27;;;;;;;;;9.00;9.00;;;;;;;;5081024;28;46687;-75
2022/05/17 04:38:53;;;;;;;;;9.33;9.33;;;;;;;;5082401;28;45390;-75
2022/05/17 04:41:18;;;;;;;;;9.67;9.67;;;;;;;;5082404;28;45334;-75
2022/05/17 04:43:44;;;;;;;;;7.00;7.00;;;;;;;;5080918;28;47117;-75
2022/05/17 04:46:09;;;;;;;;;8.67;8.33;;;;;;;;5081746;28;45320;-75
2022/05/17 04:48:34;;;;;;;;;8.00;8.00;;;;;;;;5081265;28;45274;-76
2022/05/17 04:50:59;;;;;;;;;8.00;7.00;;;;;;;;5082526;27;45294;-75
2022/05/17 04:53:25;;;;;;;;;10.00;8.00;;;;;;;;5080817;28;47354;-75
2022/05/17 04:55:50;;;;;;;;;10.33;10.00;;;;;;;;5080920;28;46029;-75
2022/05/17 04:58:15;;;;;;;;;12.67;10.67;;;;;;;;5082216;27;45481;-75
2022/05/17 05:00:40;;;;;;;;;12.33;11.33;;;;;;;;5082235;27;45441;-75
2022/05/17 05:03:05;;;;;;;;;11.00;10.00;;;;;;;;5082084;27;46133;-76
2022/05/17 05:05:31;;;;;;;;;14.00;12.00;;;;;;;;5080820;28;45315;-75
2022/05/17 05:07:56;;;;;;;;;13.67;12.00;;;;;;;;5082298;27;45364;-76
2022/05/17 05:10:21;;;;;;;;;16.00;13.00;;;;;;;;5081934;27;45519;-76
2022/05/17 05:12:47;;;;;;;;;10.33;10.33;;;;;;;;5080408;28;47164;-75
2022/05/17 05:15:13;;;;;;;;;11.00;11.00;;;;;;;;5093184;27;45345;-75
2022/05/17 05:17:39;;;;;;;;;11.33;11.00;;;;;;;;5121675;27;45336;-75
2022/05/17 05:20:05;;;;;;;;;12.00;12.00;;;;;;;;5122866;27;47009;-75
2022/05/17 05:22:31;;;;;;;;;12.00;12.00;;;;;;;;5122688;27;46133;-76
2022/05/17 05:24:57;;;;;;;;;12.00;10.33;;;;;;;;5122943;27;45255;-75
2022/05/17 05:27:22;;;;;;;;;12.00;12.00;;;;;;;;5121231;27;45694;-75
2022/05/17 05:29:47;;;;;;;;;14.33;11.67;;;;;;;;5121486;27;47307;-75
2022/05/17 05:32:12;;;;;;;;;14.00;13.00;;;;;;;;5121271;27;47223;-75
2022/05/17 05:34:37;;;;;;;;;10.00;9.67;;;;;;;;5121536;27;45996;-75
2022/05/17 05:37:03;;;;;;;;;10.00;9.67;;;;;;;;5122790;27;45384;-73
2022/05/17 05:39:29;;;;;;;;;9.00;8.00;;;;;;;;5091977;27;47435;-74
2022/05/17 05:41:54;;;;;;;;;9.67;8.33;;;;;;;;5090179;27;46188;-75
2022/05/17 05:44:20;;;;;;;;;12.33;11.00;;;;;;;;5087508;27;45355;-74
2022/05/17 05:46:45;;;;;;;;;9.33;9.00;;;;;;;;5085347;27;45415;-74
2022/05/17 05:49:11;;;;;;;;;9.00;9.00;;;;;;;;5090598;27;45487;-74
2022/05/17 05:51:36;;;;;;;;;9.67;9.00;;;;;;;;5089683;27;45449;-74
2022/05/17 05:54:02;;;;;;;;;8.00;8.00;;;;;;;;5091426;27;45387;-74
2022/05/17 05:56:27;;;;;;;;;11.33;11.33;;;;;;;;5091076;27;45287;-74
2022/05/17 05:58:52;;;;;;;;;11.00;10.33;;;;;;;;5087305;27;47359;-74
2022/05/17 06:01:17;;;;;;;;;12.00;11.00;;;;;;;;5091674;27;45391;-74
2022/05/17 06:03:43;;;;;;;;;13.33;13.33;;;;;;;;5096721;27;45305;-74
2022/05/17 06:06:08;;;;;;;;;10.00;9.00;;;;;;;;5101613;27;45489;-73
2022/05/17 06:08:34;;;;;;;;;11.00;11.00;;;;;;;;5096399;27;45397;-75
2022/05/17 06:11:01;;;;;;;;;11.00;9.33;;;;;;;;5092801;27;45489;-74
2022/05/17 06:13:26;;;;;;;;;8.67;7.67;;;;;;;;5101415;27;45293;-74
2022/05/17 06:15:52;;;;;;;;;11.00;10.00;;;;;;;;5112564;27;45416;-74
2022/05/17 06:18:18;;;;;;;;;4.33;4.33;;;;;;;;5100347;27;45267;-74
2022/05/17 06:20:48;;;;;;;;;9.00;9.00;;;;;;;;5080791;27;45251;-74
2022/05/17 06:23:13;;;;;;;;;8.67;8.67;;;;;;;;5080714;27;45338;-75
2022/05/17 06:25:38;;;;;;;;;9.00;8.00;;;;;;;;5080885;27;45294;-74
2022/05/17 06:28:04;;;;;;;;;11.00;11.00;;;;;;;;5080508;27;45325;-74
2022/05/17 06:30:29;;;;;;;;;11.33;11.33;;;;;;;;5081478;27;45346;-74
2022/05/17 06:32:54;;;;;;;;;8.67;8.67;;;;;;;;5085467;27;45227;-74
2022/05/17 06:35:19;;;;;;;;;9.00;9.00;;;;;;;;5089672;27;45396;-74
2022/05/17 06:37:46;;;;;;;;;9.33;9.00;;;;;;;;5100942;27;45316;-74
2022/05/17 06:40:11;;;;;;;;;11.00;9.67;;;;;;;;5099658;27;47657;-74
2022/05/17 06:42:37;;;;;;;;;13.00;12.00;;;;;;;;5096934;27;45281;-73
2022/05/17 06:45:02;;;;;;;;;9.33;9.33;;;;;;;;5080730;27;45548;-73
2022/05/17 06:47:27;;;;;;;;;9.33;8.33;;;;;;;;5080456;27;45459;-74
2022/05/17 06:49:53;;;;;;;;;11.00;10.00;;;;;;;;5080320;27;46444;-75
2022/05/17 06:52:18;;;;;;;;;8.00;8.00;;;;;;;;5087775;27;45436;-74
2022/05/17 06:54:44;;;;;;;;;11.00;10.00;;;;;;;;5101070;27;45328;-74
2022/05/17 06:57:10;;;;;;;;;10.00;9.00;;;;;;;;5083869;27;45600;-74
2022/05/17 06:59:36;;;;;;;;;10.67;9.67;;;;;;;;5098323;27;45408;-73
2022/05/17 07:02:02;;;;;;;;;9.00;9.00;;;;;;;;5096586;27;45432;-75
2022/05/17 07:04:27;;;;;;;;;10.00;10.00;;;;;;;;5096144;27;45431;-75
2022/05/17 07:06:54;;;;;;;;;7.33;7.33;;;;;;;;5097665;27;47422;-74
2022/05/17 07:09:22;;;;;;;;;9.00;8.33;;;;;;;;5098571;27;45596;-74
2022/05/17 07:14:31;;;;;;;;;10.00;9.00;;;;;;;;5100574;27;45296;-74
2022/05/17 07:16:56;;;;;;;;;11.00;11.00;;;;;;;;5120715;27;45207;-74
2022/05/17 07:19:21;;;;;;;;;8.00;8.00;;;;;;;;5117595;27;47082;-74
2022/05/17 07:21:46;;;;;;;;;12.00;12.00;;;;;;;;5118522;27;45434;-74
2022/05/17 07:24:12;;;;;;;;;12.00;10.33;;;;;;;;5119186;27;45595;-75
2022/05/17 07:26:37;;;;;;;;;9.67;9.67;;;;;;;;5117973;27;46426;-75
2022/05/17 07:29:02;;;;;;;;;10.33;9.00;;;;;;;;5118212;27;47955;-74
2022/05/17 07:31:28;;;;;;;;;7.33;7.33;;;;;;;;5120326;27;45315;-75
2022/05/17 07:33:53;;;;;;;;;11.33;11.33;;;;;;;;5120925;27;45438;-75
2022/05/17 07:36:18;;;;;;;;;9.00;9.00;;;;;;;;5120930;27;45610;-75
2022/05/17 07:38:44;;;;;;;;;7.00;7.00;;;;;;;;5119289;27;48149;-74
2022/05/17 07:41:09;;;;;;;;;7.33;7.33;;;;;;;;5120934;27;45436;-75
2022/05/17 07:43:34;;;;;;;;;5.67;5.67;;;;;;;;5119590;27;45310;-75
2022/05/17 07:46:01;;;;;;;;;6.00;6.00;;;;;;;;5120794;27;45236;-75
2022/05/17 07:48:26;;;;;;;;;8.33;7.67;;;;;;;;5119451;27;47707;-75
2022/05/17 07:50:52;;;;;;;;;8.00;6.00;;;;;;;;5120733;27;45247;-75
2022/05/17 07:53:19;;;;;;;;;5.33;5.33;;;;;;;;5120802;27;45272;-74
2022/05/17 07:55:45;;;;;;;;;5.67;5.67;;;;;;;;5119192;27;46431;-75
2022/05/17 07:58:11;;;;;;;;;5.67;5.67;;;;;;;;5120233;27;46139;-75
2022/05/17 08:00:37;;;;;;;;;6.67;6.67;;;;;;;;5119361;27;46019;-74
2022/05/17 08:03:04;;;;;;;;;7.67;7.67;;;;;;;;5119398;27;45180;-74
2022/05/17 08:05:29;;;;;;;;;6.00;6.00;;;;;;;;5118997;27;47040;-74
2022/05/17 08:07:55;;;;;;;;;7.33;7.00;;;;;;;;5120284;27;46075;-75
2022/05/17 08:10:20;;;;;;;;;7.00;7.00;;;;;;;;5120463;27;45408;-74
2022/05/17 08:12:46;;;;;;;;;72.75;61.25;;;;;;;;5120347;27;45410;-74
2022/05/17 08:15:11;;;;;;;;;24.00;22.00;;;;;;;;5114789;27;45261;-74
2022/05/17 08:17:37;;;;;;;;;19.33;19.33;;;;;;;;5099613;27;45357;-75
2022/05/17 08:20:07;;;;;;;;;17.33;16.00;;;;;;;;5099804;27;45301;-74
2022/05/17 08:22:32;;;;;;;;;10.67;10.67;;;;;;;;5100822;27;45393;-75
2022/05/17 08:27:41;;;;;;;;;7.67;7.67;;;;;;;;5102775;27;45210;-74
2022/05/17 08:30:09;;;;;;;;;8.00;8.00;;;;;;;;5103269;27;45257;-75
2022/05/17 08:35:19;;;;;;;;;10.33;9.67;;;;;;;;5102944;27;45377;-74
2022/05/17 08:37:44;;;;;;;;;8.00;8.00;;;;;;;;5102693;27;45365;-74
2022/05/17 08:40:16;;;;;;;;;12.00;11.67;;;;;;;;5103141;27;45236;-73
2022/05/17 08:42:56;;;;;;;;;15.33;14.33;;;;;;;;5101394;27;45615;-74
2022/05/17 08:45:29;;;;;;;;;16.67;14.67;;;;;;;;5102958;27;45338;-74
2022/05/17 08:47:54;;;;;;;;;12.00;11.67;;;;;;;;5102654;27;45487;-75
2022/05/17 08:50:23;;;;;;;;;21.00;19.00;;;;;;;;5102867;27;45209;-74
2022/05/17 08:52:48;;;;;;;;;7.00;7.00;;;;;;;;5102984;27;45316;-75
2022/05/17 08:55:31;;;;;;;;;7.67;5.67;;;;;;;;5102876;27;45262;-75
2022/05/17 08:58:17;;;;;;;;;5.33;5.33;;;;;;;;5101354;27;47070;-76
2022/05/17 09:00:54;;;;;;;;;4.00;4.00;;;;;;;;5102822;27;45346;-76
2022/05/17 09:03:31;;;;;;;;;5.67;5.00;;;;;;;;5102905;27;45330;-75
2022/05/17 09:06:15;;;;;;;;;7.00;7.00;;;;;;;;5101283;27;47098;-75
2022/05/17 09:08:46;;;;;;;;;3.00;3.00;;;;;;;;5102578;27;45269;-76
2022/05/17 09:11:17;;;;;;;;;4.00;4.00;;;;;;;;5102463;27;45324;-76
2022/05/17 09:14:14;;;;;;;;;4.00;4.00;;;;;;;;5102787;27;45293;-75
2022/05/17 09:16:42;;;;;;;;;4.00;4.00;;;;;;;;5116089;27;45335;-75
2022/05/17 09:19:08;;;;;;;;;11.00;10.67;;;;;;;;5123011;27;46215;-75
2022/05/17 09:21:33;;;;;;;;;20.00;17.33;;;;;;;;5123075;27;45281;-75
2022/05/17 09:24:04;;;;;;;;;14.33;13.67;;;;;;;;5123303;27;45388;-74
2022/05/17 09:26:29;;;;;;;;;4.00;4.00;;;;;;;;5105983;27;45468;-75
2022/05/17 09:28:59;;;;;;;;;4.67;4.33;;;;;;;;5082024;27;45457;-74
2022/05/17 09:31:28;;;;;;;;;5.00;5.00;;;;;;;;5098074;27;45830;-77
2022/05/17 09:33:53;;;;;;;;;5.33;5.33;;;;;;;;5093678;27;45687;-75
2022/05/17 09:36:20;;;;;;;;;3.33;3.33;;;;;;;;5097033;27;45183;-75
2022/05/17 09:38:47;;;;;;;;;3.67;3.67;;;;;;;;5101928;27;46074;-75
2022/05/17 09:41:14;;;;;;;;;9.00;9.00;;;;;;;;5101948;27;45310;-75
2022/05/17 09:43:39;;;;;;;;;4.67;4.67;;;;;;;;5090323;27;45349;-74
2022/05/17 09:46:14;;;;;;;;;112.00;105.50;;;;;;;;5081400;27;45271;-74
2022/05/17 09:54:26;;;;;;;;;5.33;5.33;;;;;;;;5081608;28;45281;-75
2022/05/17 09:56:52;;;;;;;;;3.33;3.33;;;;;;;;5081131;27;45393;-74
2022/05/17 09:59:21;;;;;;;;;4.00;3.00;;;;;;;;5081412;27;45409;-73
2022/05/17 10:01:47;;;;;;;;;2.33;2.33;;;;;;;;5081364;27;45242;-75
2022/05/17 10:04:17;;;;;;;;;5.00;5.00;;;;;;;;5081486;27;45223;-75
2022/05/17 10:06:44;;;;;;;;;4.00;4.00;;;;;;;;5081070;28;45512;-74
2022/05/17 10:09:12;;;;;;;;;50.00;39.00;;;;;;;;5081113;27;45364;-73
2022/05/17 10:11:49;;;;;;;;;38.67;32.00;;;;;;;;5079579;28;45927;-74
2022/05/17 10:14:14;;;;;;;;;4.67;3.67;;;;;;;;5079808;28;45180;-75
2022/05/17 10:16:42;;;;;;;;;14.33;13.67;;;;;;;;5116649;27;45437;-74
2022/05/17 10:19:17;;;;;;;;;37.33;32.00;;;;;;;;5122030;27;45473;-74
2022/05/17 10:21:48;;;;;;;;;6.00;5.00;;;;;;;;5122016;27;45420;-76
2022/05/17 10:24:14;;;;;;;;;3.67;3.00;;;;;;;;5122251;27;45405;-75
2022/05/17 10:26:52;;;;;;;;;2.00;2.00;;;;;;;;5121824;27;45271;-75
2022/05/17 10:29:30;;;;;;;;;2.00;2.00;;;;;;;;5120488;27;47068;-75
2022/05/17 10:32:03;;;;;;;;;2.00;2.00;;;;;;;;5120426;27;45364;-75
2022/05/17 10:34:45;;;;;;;;;8.00;8.00;;;;;;;;5122061;27;45296;-75
2022/05/17 10:37:18;;;;;;;;;10.67;10.67;;;;;;;;5121615;27;45368;-76
2022/05/17 10:39:47;;;;;;;;;25.67;24.00;;;;;;;;5121373;27;46218;-75
2022/05/17 10:42:12;;;;;;;;;3.00;2.00;;;;;;;;5120062;27;45282;-74
2022/05/17 10:44:45;;;;;;;;;19.67;18.67;;;;;;;;5119821;27;45286;-76
2022/05/17 10:47:18;;;;;;;;;25.67;22.67;;;;;;;;5120299;27;47237;-75
2022/05/17 10:49:46;;;;;;;;;55.33;43.33;;;;;;;;5121621;27;45412;-75
2022/05/17 10:52:23;;;;;;;;;2.00;2.00;;;;;;;;5121503;27;45333;-74
2022/05/17 10:54:55;;;;;;;;;4.67;4.67;;;;;;;;5121987;27;45920;-73
2022/05/17 10:57:31;;;;;;;;;44.67;35.00;;;;;;;;5121232;27;45493;-75
2022/05/17 11:00:18;;;;;;;;;3.33;2.33;;;;;;;;5119999;27;46191;-75
2022/05/17 11:03:02;;;;;;;;;4.00;4.00;;;;;;;;5121446;27;45340;-75
2022/05/17 11:05:27;;;;;;;;;4.00;4.00;;;;;;;;5120278;27;45335;-75
2022/05/17 11:07:59;;;;;;;;;3.00;1.67;;;;;;;;5119901;27;46119;-76
2022/05/17 11:10:30;;;;;;;;;2.33;2.00;;;;;;;;5121381;27;46100;-76
2022/05/17 11:13:02;;;;;;;;;2.67;1.00;;;;;;;;5121779;27;45221;-76
2022/05/17 11:15:35;;;;;;;;;3.00;2.00;;;;;;;;5086269;27;45951;-76
2022/05/17 11:18:04;;;;;;;;;1.33;1.33;;;;;;;;5088422;27;45974;-76
2022/05/17 11:20:33;;;;;;;;;5.00;5.00;;;;;;;;5088483;27;45319;-76
2022/05/17 11:23:17;;;;;;;;;3.67;3.67;;;;;;;;5078528;28;45310;-76
2022/05/17 11:25:57;;;;;;;;;4.00;3.33;;;;;;;;5080103;27;45341;-77
2022/05/17 11:28:25;;;;;;;;;4.67;4.67;;;;;;;;5079574;28;45318;-76
2022/05/17 11:31:00;;;;;;;;;5.33;4.67;;;;;;;;5078340;28;47993;-75
2022/05/17 11:33:34;;;;;;;;;2.67;2.67;;;;;;;;5079559;27;45281;-76
2022/05/17 11:36:04;;;;;;;;;4.67;4.67;;;;;;;;5078468;28;45416;-75
2022/05/17 11:38:32;;;;;;;;;20.33;19.00;;;;;;;;5078021;28;46251;-75
2022/05/17 11:40:59;;;;;;;;;4.33;4.33;;;;;;;;5079364;28;45412;-76
2022/05/17 11:43:41;;;;;;;;;3.67;3.67;;;;;;;;5079776;27;45362;-76
2022/05/17 11:46:24;;;;;;;;;9.33;9.33;;;;;;;;5079612;27;45366;-75
2022/05/17 11:48:54;;;;;;;;;5.00;5.00;;;;;;;;5079529;28;45461;-76
2022/05/17 11:51:22;;;;;;;;;3.67;3.67;;;;;;;;5079467;27;45384;-76
2022/05/17 11:53:48;;;;;;;;;3.33;3.33;;;;;;;;5078602;27;45322;-76
2022/05/17 11:56:25;;;;;;;;;4.33;4.33;;;;;;;;5078442;28;45333;-77
2022/05/17 11:59:16;;;;;;;;;3.00;3.00;;;;;;;;5083066;27;45501;-76
2022/05/17 12:01:43;;;;;;;;;5.00;4.33;;;;;;;;5082557;28;45391;-76
2022/05/17 12:04:20;;;;;;;;;3.00;3.00;;;;;;;;5084146;27;45172;-75
2022/05/17 12:06:48;;;;;;;;;6.00;6.00;;;;;;;;5094564;27;45410;-76
2022/05/17 12:09:16;;;;;;;;;4.33;4.00;;;;;;;;5096535;27;45433;-75
2022/05/17 12:12:14;;;;;;;;;3.67;3.67;;;;;;;;5082649;27;45268;-74
2022/05/17 12:15:03;;;;;;;;;6.67;5.00;;;;;;;;5071513;27;45303;-76
2022/05/17 12:17:35;;;;;;;;;4.67;4.67;;;;;;;;5113383;27;45449;-76
2022/05/17 12:20:18;;;;;;;;;6.33;5.67;;;;;;;;5123889;27;45326;-76
2022/05/17 12:22:48;;;;;;;;;4.00;4.00;;;;;;;;5122410;27;47166;-77
2022/05/17 12:25:17;;;;;;;;;5.33;5.33;;;;;;;;5123766;27;45314;-77
2022/05/17 12:27:44;;;;;;;;;4.00;4.00;;;;;;;;5087143;27;45405;-76
2022/05/17 12:33:04;;;;;;;;;5.00;5.00;;;;;;;;5082352;28;45652;-76
2022/05/17 12:35:30;;;;;;;;;5.33;5.33;;;;;;;;5092183;27;45347;-76
2022/05/17 12:37:56;;;;;;;;;6.33;5.33;;;;;;;;5082066;27;45352;-76
2022/05/17 12:43:12;;;;;;;;;4.67;4.67;;;;;;;;5081970;28;45332;-76
2022/05/17 12:45:40;;;;;;;;;5.33;5.00;;;;;;;;5081125;28;45288;-75
2022/05/17 12:48:13;;;;;;;;;26.33;22.33;;;;;;;;5082191;27;45180;-75
2022/05/17 12:50:47;;;;;;;;;4.67;4.00;;;;;;;;5082269;27;45468;-75
2022/05/17 12:53:24;;;;;;;;;6.67;6.67;;;;;;;;5082627;27;46374;-76
2022/05/17 12:56:05;;;;;;;;;4.67;4.00;;;;;;;;5101292;27;45312;-77
2022/05/17 12:58:31;;;;;;;;;4.00;4.00;;;;;;;;5093313;27;45472;-77
2022/05/17 13:00:58;;;;;;;;;4.00;3.33;;;;;;;;5082453;27;45633;-76
2022/05/17 13:03:24;;;;;;;;;6.00;5.00;;;;;;;;5081758;27;45922;-76
2022/05/17 13:05:51;;;;;;;;;6.00;6.00;;;;;;;;5082180;27;45232;-76
2022/05/17 13:08:27;;;;;;;;;5.00;5.00;;;;;;;;5081367;28;45382;-76
2022/05/17 13:11:01;;;;;;;;;4.33;4.00;;;;;;;;5081709;27;45299;-76
2022/05/17 13:13:27;;;;;;;;;4.67;4.67;;;;;;;;5081866;28;45254;-76
2022/05/17 13:15:54;;;;;;;;;4.67;4.67;;;;;;;;5102889;27;45290;-74
2022/05/17 13:18:20;;;;;;;;;5.67;5.67;;;;;;;;5123235;27;45442;-74
2022/05/17 13:20:48;;;;;;;;;4.33;4.33;;;;;;;;5122780;27;45312;-74
2022/05/17 13:23:14;;;;;;;;;4.00;4.00;;;;;;;;5121077;27;47533;-76
2022/05/17 13:25:40;;;;;;;;;6.00;6.00;;;;;;;;5121459;27;45234;-76
2022/05/17 13:28:06;;;;;;;;;5.33;3.67;;;;;;;;5122662;27;45351;-74
2022/05/17 13:30:31;;;;;;;;;5.00;5.00;;;;;;;;5121358;27;47355;-76
2022/05/17 13:32:58;;;;;;;;;4.33;4.33;;;;;;;;5122491;27;45490;-76
2022/05/17 13:35:25;;;;;;;;;5.00;4.00;;;;;;;;5121414;27;45347;-74
2022/05/17 13:37:59;;;;;;;;;5.33;5.33;;;;;;;;5122007;27;45461;-79
2022/05/17 13:40:39;;;;;;;;;4.00;4.00;;;;;;;;5122569;27;45687;-77
2022/05/17 13:43:24;;;;;;;;;4.33;4.33;;;;;;;;5120974;27;46254;-73
2022/05/17 13:45:57;;;;;;;;;5.00;5.00;;;;;;;;5122376;27;45383;-75
2022/05/17 13:48:22;;;;;;;;;5.00;5.00;;;;;;;;5081494;27;45338;-75
2022/05/17 13:50:52;;;;;;;;;5.33;5.00;;;;;;;;5081434;28;45339;-76
2022/05/17 13:53:19;;;;;;;;;4.33;4.33;;;;;;;;5080756;27;46368;-74
2022/05/17 13:55:45;;;;;;;;;5.00;5.00;;;;;;;;5079668;28;45831;-76
2022/05/17 13:58:11;;;;;;;;;4.00;4.00;;;;;;;;5080934;27;45301;-76
2022/05/17 14:00:40;;;;;;;;;5.33;5.33;;;;;;;;5080025;28;45325;-74
2022/05/17 14:03:25;;;;;;;;;7.00;5.33;;;;;;;;5081081;27;45330;-76
2022/05/17 14:05:50;;;;;;;;;5.00;5.00;;;;;;;;5080794;27;45483;-75
2022/05/17 14:13:56;;;;;;;;;5.33;4.67;;;;;;;;5080738;28;45766;-76
2022/05/17 14:16:23;;;;;;;;;6.33;6.33;;;;;;;;5111913;27;45270;-76
2022/05/17 14:18:49;;;;;;;;;5.00;5.00;;;;;;;;5123311;27;45423;-77
2022/05/17 14:21:15;;;;;;;;;5.33;5.33;;;;;;;;5121851;27;45246;-73
2022/05/17 14:23:41;;;;;;;;;6.33;6.33;;;;;;;;5098252;27;45317;-75
2022/05/17 14:26:06;;;;;;;;;4.33;4.33;;;;;;;;5080570;28;45226;-75
2022/05/17 14:28:32;;;;;;;;;5.67;5.67;;;;;;;;5080873;27;45324;-75
2022/05/17 14:30:58;;;;;;;;;5.00;5.00;;;;;;;;5080786;28;45270;-75
2022/05/17 14:33:23;;;;;;;;;4.67;4.33;;;;;;;;5079030;28;47506;-75
2022/05/17 14:35:52;;;;;;;;;5.67;5.67;;;;;;;;5080913;28;45292;-74
2022/05/17 14:38:18;;;;;;;;;5.00;5.00;;;;;;;;5080465;27;45311;-76
2022/05/17 14:40:43;;;;;;;;;6.00;4.67;;;;;;;;5079240;28;47230;-77
2022/05/17 14:43:08;;;;;;;;;6.67;6.67;;;;;;;;5080330;27;45259;-75
2022/05/17 14:45:34;;;;;;;;;6.00;5.67;;;;;;;;5084478;27;45399;-75
2022/05/17 14:48:00;;;;;;;;;5.00;5.00;;;;;;;;5099595;27;45348;-77
2022/05/17 14:50:25;;;;;;;;;5.00;5.00;;;;;;;;5100971;27;45247;-76
2022/05/17 14:52:51;;;;;;;;;6.00;6.00;;;;;;;;5100603;27;45368;-75
2022/05/17 14:55:18;;;;;;;;;6.00;5.67;;;;;;;;5099363;27;45353;-75
2022/05/17 14:57:43;;;;;;;;;7.00;6.00;;;;;;;;5100608;27;45274;-75
2022/05/17 15:00:10;;;;;;;;;6.00;6.00;;;;;;;;5100634;27;45318;-76
2022/05/17 15:02:37;;;;;;;;;5.00;5.00;;;;;;;;5100591;27;46471;-76
2022/05/17 15:05:04;;;;;;;;;6.00;6.00;;;;;;;;5100622;27;45373;-76
2022/05/17 15:07:32;;;;;;;;;5.67;5.67;;;;;;;;5099230;27;45376;-75
2022/05/17 15:10:03;;;;;;;;;6.00;6.00;;;;;;;;5099043;27;46683;-75